sensor_id;sensor_type;location;lat;lon;timestamp;P1;durP1;ratioP1;P2;durP2;ratioP2
20474;SDS011;10396;51.724;23.090;2022-07-23T00:00:58;16.10;;;10.02;;
20474;SDS011;10396;51.724;23.090;2022-07-23T00:03:25;19.08;;;9.98;;
20474;SDS011;10396;51.724;23.090;2022-07-23T00:05:53;20.33;;;9.90;;
20474;SDS011;10396;51.724;23.090;2022-07-23T00:08:20;17.25;;;9.93;;
20474;SDS011;10396;51.724;23.090;2022-07-23T00:10:48;23.42;;;11.32;;
20474;SDS011;10396;51.724;23.090;2022-07-23T00:13:16;18.90;;;10.77;;
20474;SDS011;10396;51.724;23.090;2022-07-23T00:15:44;18.80;;;10.63;;
20474;SDS011;10396;51.724;23.090;2022-07-23T00:18:12;18.83;;;10.75;;
20474;SDS011;10396;51.724;23.090;2022-07-23T00:20:39;21.33;;;10.52;;
20474;SDS011;10396;51.724;23.090;2022-07-23T00:23:07;15.90;;;10.38;;
20474;SDS011;10396;51.724;23.090;2022-07-23T00:25:34;17.50;;;10.38;;
20474;SDS011;10396;51.724;23.090;2022-07-23T00:28:02;20.98;;;10.30;;
20474;SDS011;10396;51.724;23.090;2022-07-23T00:30:32;17.05;;;9.75;;
20474;SDS011;10396;51.724;23.090;2022-07-23T00:33:00;20.45;;;10.77;;
20474;SDS011;10396;51.724;23.090;2022-07-23T00:35:29;20.67;;;10.27;;
20474;SDS011;10396;51.724;23.090;2022-07-23T00:37:58;16.33;;;10.30;;
20474;SDS011;10396;51.724;23.090;2022-07-23T00:40:26;17.45;;;10.55;;
20474;SDS011;10396;51.724;23.090;2022-07-23T00:42:54;21.15;;;10.43;;
20474;SDS011;10396;51.724;23.090;2022-07-23T00:45:21;17.42;;;10.43;;
20474;SDS011;10396;51.724;23.090;2022-07-23T00:47:51;20.15;;;10.65;;
20474;SDS011;10396;51.724;23.090;2022-07-23T00:50:18;19.33;;;10.70;;
20474;SDS011;10396;51.724;23.090;2022-07-23T00:52:46;19.67;;;10.35;;
20474;SDS011;10396;51.724;23.090;2022-07-23T00:55:14;19.17;;;10.70;;
20474;SDS011;10396;51.724;23.090;2022-07-23T00:57:42;18.38;;;10.57;;
20474;SDS011;10396;51.724;23.090;2022-07-23T01:00:10;21.05;;;10.57;;
20474;SDS011;10396;51.724;23.090;2022-07-23T01:02:39;22.90;;;10.27;;
20474;SDS011;10396;51.724;23.090;2022-07-23T01:05:08;16.38;;;10.13;;
20474;SDS011;10396;51.724;23.090;2022-07-23T01:07:36;15.85;;;10.05;;
20474;SDS011;10396;51.724;23.090;2022-07-23T01:10:04;20.35;;;10.30;;
20474;SDS011;10396;51.724;23.090;2022-07-23T01:12:52;18.27;;;10.13;;
20474;SDS011;10396;51.724;23.090;2022-07-23T01:15:20;18.98;;;9.90;;
20474;SDS011;10396;51.724;23.090;2022-07-23T01:17:47;16.98;;;9.57;;
20474;SDS011;10396;51.724;23.090;2022-07-23T01:20:16;18.30;;;10.10;;
20474;SDS011;10396;51.724;23.090;2022-07-23T01:22:45;16.88;;;10.25;;
20474;SDS011;10396;51.724;23.090;2022-07-23T01:25:13;18.00;;;10.35;;
20474;SDS011;10396;51.724;23.090;2022-07-23T01:27:41;16.42;;;10.75;;
20474;SDS011;10396;51.724;23.090;2022-07-23T01:30:09;22.10;;;10.57;;
20474;SDS011;10396;51.724;23.090;2022-07-23T01:32:38;18.48;;;10.25;;
20474;SDS011;10396;51.724;23.090;2022-07-23T01:35:06;17.63;;;9.93;;
20474;SDS011;10396;51.724;23.090;2022-07-23T01:37:34;16.13;;;10.13;;
20474;SDS011;10396;51.724;23.090;2022-07-23T01:40:04;15.13;;;10.27;;
20474;SDS011;10396;51.724;23.090;2022-07-23T01:42:32;20.75;;;10.95;;
20474;SDS011;10396;51.724;23.090;2022-07-23T01:45:00;16.95;;;11.00;;
20474;SDS011;10396;51.724;23.090;2022-07-23T01:47:27;18.60;;;10.65;;
20474;SDS011;10396;51.724;23.090;2022-07-23T01:49:55;17.55;;;10.38;;
20474;SDS011;10396;51.724;23.090;2022-07-23T01:52:22;18.77;;;10.45;;
20474;SDS011;10396;51.724;23.090;2022-07-23T01:54:51;20.80;;;10.15;;
20474;SDS011;10396;51.724;23.090;2022-07-23T01:57:20;18.17;;;10.45;;
20474;SDS011;10396;51.724;23.090;2022-07-23T01:59:48;17.63;;;11.18;;
20474;SDS011;10396;51.724;23.090;2022-07-23T02:02:15;15.45;;;10.07;;
20474;SDS011;10396;51.724;23.090;2022-07-23T02:04:43;18.65;;;10.65;;
20474;SDS011;10396;51.724;23.090;2022-07-23T02:07:10;21.05;;;10.15;;
20474;SDS011;10396;51.724;23.090;2022-07-23T02:09:38;15.50;;;10.45;;
20474;SDS011;10396;51.724;23.090;2022-07-23T02:12:06;17.15;;;10.75;;
20474;SDS011;10396;51.724;23.090;2022-07-23T02:14:35;15.70;;;10.40;;
20474;SDS011;10396;51.724;23.090;2022-07-23T02:17:02;19.58;;;10.63;;
20474;SDS011;10396;51.724;23.090;2022-07-23T02:19:30;19.02;;;10.95;;
20474;SDS011;10396;51.724;23.090;2022-07-23T02:21:57;15.75;;;10.43;;
20474;SDS011;10396;51.724;23.090;2022-07-23T02:24:25;16.35;;;11.43;;
20474;SDS011;10396;51.724;23.090;2022-07-23T02:26:53;16.83;;;11.35;;
20474;SDS011;10396;51.724;23.090;2022-07-23T02:29:20;19.55;;;10.93;;
20474;SDS011;10396;51.724;23.090;2022-07-23T02:31:49;17.50;;;11.60;;
20474;SDS011;10396;51.724;23.090;2022-07-23T02:34:17;19.98;;;11.57;;
20474;SDS011;10396;51.724;23.090;2022-07-23T02:36:44;18.35;;;11.77;;
20474;SDS011;10396;51.724;23.090;2022-07-23T02:39:11;18.67;;;11.93;;
20474;SDS011;10396;51.724;23.090;2022-07-23T02:41:40;18.98;;;11.70;;
20474;SDS011;10396;51.724;23.090;2022-07-23T02:44:07;21.85;;;15.38;;
20474;SDS011;10396;51.724;23.090;2022-07-23T02:46:34;20.25;;;13.15;;
20474;SDS011;10396;51.724;23.090;2022-07-23T02:49:04;17.63;;;11.27;;
20474;SDS011;10396;51.724;23.090;2022-07-23T02:51:31;16.85;;;11.15;;
20474;SDS011;10396;51.724;23.090;2022-07-23T02:53:58;18.20;;;11.70;;
20474;SDS011;10396;51.724;23.090;2022-07-23T02:56:26;16.55;;;11.52;;
20474;SDS011;10396;51.724;23.090;2022-07-23T02:58:54;21.52;;;12.02;;
20474;SDS011;10396;51.724;23.090;2022-07-23T03:01:21;21.40;;;11.88;;
20474;SDS011;10396;51.724;23.090;2022-07-23T03:03:49;21.17;;;12.07;;
20474;SDS011;10396;51.724;23.090;2022-07-23T03:06:18;20.60;;;12.32;;
20474;SDS011;10396;51.724;23.090;2022-07-23T03:08:45;22.05;;;12.32;;
20474;SDS011;10396;51.724;23.090;2022-07-23T03:11:13;19.77;;;11.73;;
20474;SDS011;10396;51.724;23.090;2022-07-23T03:13:40;18.70;;;11.85;;
20474;SDS011;10396;51.724;23.090;2022-07-23T03:16:08;18.00;;;11.98;;
20474;SDS011;10396;51.724;23.090;2022-07-23T03:18:36;18.10;;;11.93;;
20474;SDS011;10396;51.724;23.090;2022-07-23T03:21:03;20.23;;;11.45;;
20474;SDS011;10396;51.724;23.090;2022-07-23T03:23:32;16.40;;;10.88;;
20474;SDS011;10396;51.724;23.090;2022-07-23T03:26:00;17.25;;;10.70;;
20474;SDS011;10396;51.724;23.090;2022-07-23T03:28:27;18.65;;;11.05;;
20474;SDS011;10396;51.724;23.090;2022-07-23T03:30:55;20.35;;;10.93;;
20474;SDS011;10396;51.724;23.090;2022-07-23T03:33:22;20.85;;;11.13;;
20474;SDS011;10396;51.724;23.090;2022-07-23T03:35:50;26.10;;;11.60;;
20474;SDS011;10396;51.724;23.090;2022-07-23T03:38:17;17.60;;;11.13;;
20474;SDS011;10396;51.724;23.090;2022-07-23T03:40:46;20.23;;;12.57;;
20474;SDS011;10396;51.724;23.090;2022-07-23T03:43:14;19.50;;;11.57;;
20474;SDS011;10396;51.724;23.090;2022-07-23T03:45:41;17.90;;;11.07;;
20474;SDS011;10396;51.724;23.090;2022-07-23T03:48:09;17.95;;;11.88;;
20474;SDS011;10396;51.724;23.090;2022-07-23T03:50:36;18.48;;;11.48;;
20474;SDS011;10396;51.724;23.090;2022-07-23T03:53:04;18.23;;;11.57;;
20474;SDS011;10396;51.724;23.090;2022-07-23T03:55:31;19.80;;;11.73;;
20474;SDS011;10396;51.724;23.090;2022-07-23T03:58:00;18.20;;;11.82;;
20474;SDS011;10396;51.724;23.090;2022-07-23T04:00:28;17.80;;;11.48;;
20474;SDS011;10396;51.724;23.090;2022-07-23T04:02:56;19.45;;;11.88;;
20474;SDS011;10396;51.724;23.090;2022-07-23T04:05:23;22.40;;;12.07;;
20474;SDS011;10396;51.724;23.090;2022-07-23T04:07:51;18.73;;;13.13;;
20474;SDS011;10396;51.724;23.090;2022-07-23T04:10:19;21.20;;;14.85;;
20474;SDS011;10396;51.724;23.090;2022-07-23T04:12:46;21.65;;;12.52;;
20474;SDS011;10396;51.724;23.090;2022-07-23T04:15:15;17.63;;;11.68;;
20474;SDS011;10396;51.724;23.090;2022-07-23T04:17:43;17.60;;;12.10;;
20474;SDS011;10396;51.724;23.090;2022-07-23T04:20:12;15.80;;;11.35;;
20474;SDS011;10396;51.724;23.090;2022-07-23T04:22:39;18.85;;;11.55;;
20474;SDS011;10396;51.724;23.090;2022-07-23T04:25:07;17.25;;;11.50;;
20474;SDS011;10396;51.724;23.090;2022-07-23T04:27:35;17.10;;;12.00;;
20474;SDS011;10396;51.724;23.090;2022-07-23T04:30:02;18.23;;;11.60;;
20474;SDS011;10396;51.724;23.090;2022-07-23T04:32:32;24.52;;;12.35;;
20474;SDS011;10396;51.724;23.090;2022-07-23T04:34:59;20.83;;;12.85;;
20474;SDS011;10396;51.724;23.090;2022-07-23T04:37:27;20.95;;;11.95;;
20474;SDS011;10396;51.724;23.090;2022-07-23T04:39:55;22.30;;;12.48;;
20474;SDS011;10396;51.724;23.090;2022-07-23T04:42:22;31.88;;;12.65;;
20474;SDS011;10396;51.724;23.090;2022-07-23T04:44:50;29.90;;;12.32;;
20474;SDS011;10396;51.724;23.090;2022-07-23T04:47:17;30.75;;;12.07;;
20474;SDS011;10396;51.724;23.090;2022-07-23T04:49:46;21.30;;;12.43;;
20474;SDS011;10396;51.724;23.090;2022-07-23T04:52:14;20.35;;;13.20;;
20474;SDS011;10396;51.724;23.090;2022-07-23T04:54:42;20.02;;;12.10;;
20474;SDS011;10396;51.724;23.090;2022-07-23T04:57:09;19.77;;;12.00;;
20474;SDS011;10396;51.724;23.090;2022-07-23T04:59:36;17.20;;;11.35;;
20474;SDS011;10396;51.724;23.090;2022-07-23T05:02:04;16.05;;;11.52;;
20474;SDS011;10396;51.724;23.090;2022-07-23T05:04:31;17.98;;;11.60;;
20474;SDS011;10396;51.724;23.090;2022-07-23T05:07:00;18.17;;;11.82;;
20474;SDS011;10396;51.724;23.090;2022-07-23T05:09:28;17.08;;;11.20;;
20474;SDS011;10396;51.724;23.090;2022-07-23T05:11:56;16.25;;;11.40;;
20474;SDS011;10396;51.724;23.090;2022-07-23T05:14:23;17.25;;;10.98;;
20474;SDS011;10396;51.724;23.090;2022-07-23T05:16:54;21.15;;;12.10;;
20474;SDS011;10396;51.724;23.090;2022-07-23T05:19:21;19.05;;;13.07;;
20474;SDS011;10396;51.724;23.090;2022-07-23T05:21:49;15.43;;;11.40;;
20474;SDS011;10396;51.724;23.090;2022-07-23T05:24:18;16.75;;;11.68;;
20474;SDS011;10396;51.724;23.090;2022-07-23T05:26:46;18.00;;;11.70;;
20474;SDS011;10396;51.724;23.090;2022-07-23T05:29:13;17.65;;;11.38;;
20474;SDS011;10396;51.724;23.090;2022-07-23T05:31:41;16.92;;;11.60;;
20474;SDS011;10396;51.724;23.090;2022-07-23T05:34:08;18.38;;;11.55;;
20474;SDS011;10396;51.724;23.090;2022-07-23T05:36:36;18.10;;;11.32;;
20474;SDS011;10396;51.724;23.090;2022-07-23T05:39:04;21.55;;;11.00;;
20474;SDS011;10396;51.724;23.090;2022-07-23T05:41:33;17.88;;;10.93;;
20474;SDS011;10396;51.724;23.090;2022-07-23T05:44:00;17.63;;;10.15;;
20474;SDS011;10396;51.724;23.090;2022-07-23T05:46:28;17.02;;;11.90;;
20474;SDS011;10396;51.724;23.090;2022-07-23T05:48:55;19.63;;;11.15;;
20474;SDS011;10396;51.724;23.090;2022-07-23T05:51:23;18.35;;;11.20;;
20474;SDS011;10396;51.724;23.090;2022-07-23T05:53:51;19.00;;;10.65;;
20474;SDS011;10396;51.724;23.090;2022-07-23T05:56:18;22.90;;;10.82;;
20474;SDS011;10396;51.724;23.090;2022-07-23T05:58:47;18.00;;;11.05;;
20474;SDS011;10396;51.724;23.090;2022-07-23T06:01:15;18.88;;;10.35;;
20474;SDS011;10396;51.724;23.090;2022-07-23T06:03:43;16.55;;;10.30;;
20474;SDS011;10396;51.724;23.090;2022-07-23T06:06:10;14.82;;;10.20;;
20474;SDS011;10396;51.724;23.090;2022-07-23T06:08:38;19.92;;;10.10;;
20474;SDS011;10396;51.724;23.090;2022-07-23T06:11:06;16.70;;;10.88;;
20474;SDS011;10396;51.724;23.090;2022-07-23T06:13:33;15.52;;;10.15;;
20474;SDS011;10396;51.724;23.090;2022-07-23T06:16:03;16.92;;;10.40;;
20474;SDS011;10396;51.724;23.090;2022-07-23T06:18:30;15.82;;;10.30;;
20474;SDS011;10396;51.724;23.090;2022-07-23T06:20:58;16.88;;;10.13;;
20474;SDS011;10396;51.724;23.090;2022-07-23T06:23:26;15.98;;;9.98;;
20474;SDS011;10396;51.724;23.090;2022-07-23T06:25:53;16.65;;;9.63;;
20474;SDS011;10396;51.724;23.090;2022-07-23T06:28:21;18.55;;;8.90;;
20474;SDS011;10396;51.724;23.090;2022-07-23T06:30:48;15.48;;;9.07;;
20474;SDS011;10396;51.724;23.090;2022-07-23T06:33:17;14.20;;;8.77;;
20474;SDS011;10396;51.724;23.090;2022-07-23T06:35:45;13.32;;;8.70;;
20474;SDS011;10396;51.724;23.090;2022-07-23T06:38:12;15.25;;;9.05;;
20474;SDS011;10396;51.724;23.090;2022-07-23T06:40:40;20.05;;;11.75;;
20474;SDS011;10396;51.724;23.090;2022-07-23T06:43:07;14.75;;;9.35;;
20474;SDS011;10396;51.724;23.090;2022-07-23T06:45:35;13.75;;;8.60;;
20474;SDS011;10396;51.724;23.090;2022-07-23T06:48:03;14.63;;;8.40;;
20474;SDS011;10396;51.724;23.090;2022-07-23T06:50:32;13.23;;;8.48;;
20474;SDS011;10396;51.724;23.090;2022-07-23T06:53:00;12.23;;;7.90;;
20474;SDS011;10396;51.724;23.090;2022-07-23T06:55:27;16.70;;;8.05;;
20474;SDS011;10396;51.724;23.090;2022-07-23T06:57:55;12.82;;;8.40;;
20474;SDS011;10396;51.724;23.090;2022-07-23T07:00:23;13.15;;;7.88;;
20474;SDS011;10396;51.724;23.090;2022-07-23T07:02:53;14.88;;;7.55;;
20474;SDS011;10396;51.724;23.090;2022-07-23T07:05:21;13.70;;;7.53;;
20474;SDS011;10396;51.724;23.090;2022-07-23T07:07:52;13.35;;;8.10;;
20474;SDS011;10396;51.724;23.090;2022-07-23T07:10:20;14.05;;;7.65;;
20474;SDS011;10396;51.724;23.090;2022-07-23T07:12:48;12.73;;;7.50;;
20474;SDS011;10396;51.724;23.090;2022-07-23T07:15:16;14.15;;;7.38;;
20474;SDS011;10396;51.724;23.090;2022-07-23T07:17:43;13.00;;;7.90;;
20474;SDS011;10396;51.724;23.090;2022-07-23T07:20:10;12.85;;;7.15;;
20474;SDS011;10396;51.724;23.090;2022-07-23T07:22:38;13.52;;;7.50;;
20474;SDS011;10396;51.724;23.090;2022-07-23T07:25:08;13.98;;;6.95;;
20474;SDS011;10396;51.724;23.090;2022-07-23T07:27:35;11.98;;;7.35;;
20474;SDS011;10396;51.724;23.090;2022-07-23T07:30:03;14.25;;;7.78;;
20474;SDS011;10396;51.724;23.090;2022-07-23T07:32:32;13.30;;;6.95;;
20474;SDS011;10396;51.724;23.090;2022-07-23T07:34:59;15.13;;;7.82;;
20474;SDS011;10396;51.724;23.090;2022-07-23T07:37:27;12.30;;;7.85;;
20474;SDS011;10396;51.724;23.090;2022-07-23T07:39:54;14.65;;;7.35;;
20474;SDS011;10396;51.724;23.090;2022-07-23T07:42:23;13.93;;;7.90;;
20474;SDS011;10396;51.724;23.090;2022-07-23T07:44:51;14.52;;;7.75;;
20474;SDS011;10396;51.724;23.090;2022-07-23T07:47:19;13.10;;;7.80;;
20474;SDS011;10396;51.724;23.090;2022-07-23T07:49:46;13.80;;;7.22;;
20474;SDS011;10396;51.724;23.090;2022-07-23T07:52:14;11.88;;;7.07;;
20474;SDS011;10396;51.724;23.090;2022-07-23T07:54:42;12.52;;;7.03;;
20474;SDS011;10396;51.724;23.090;2022-07-23T07:57:09;10.18;;;6.78;;
20474;SDS011;10396;51.724;23.090;2022-07-23T07:59:38;12.75;;;7.03;;
20474;SDS011;10396;51.724;23.090;2022-07-23T08:02:06;10.88;;;7.05;;
20474;SDS011;10396;51.724;23.090;2022-07-23T08:04:33;11.65;;;6.95;;
20474;SDS011;10396;51.724;23.090;2022-07-23T08:07:01;15.07;;;7.88;;
20474;SDS011;10396;51.724;23.090;2022-07-23T08:09:29;12.48;;;6.88;;
20474;SDS011;10396;51.724;23.090;2022-07-23T08:11:56;12.18;;;7.00;;
20474;SDS011;10396;51.724;23.090;2022-07-23T08:14:24;12.23;;;6.95;;
20474;SDS011;10396;51.724;23.090;2022-07-23T08:16:53;11.45;;;6.40;;
20474;SDS011;10396;51.724;23.090;2022-07-23T08:19:20;12.50;;;6.88;;
20474;SDS011;10396;51.724;23.090;2022-07-23T08:21:48;11.63;;;6.43;;
20474;SDS011;10396;51.724;23.090;2022-07-23T08:24:16;14.13;;;6.15;;
20474;SDS011;10396;51.724;23.090;2022-07-23T08:26:45;10.85;;;6.50;;
20474;SDS011;10396;51.724;23.090;2022-07-23T08:29:13;10.57;;;6.40;;
20474;SDS011;10396;51.724;23.090;2022-07-23T08:31:40;11.75;;;6.47;;
20474;SDS011;10396;51.724;23.090;2022-07-23T08:34:18;11.20;;;6.68;;
20474;SDS011;10396;51.724;23.090;2022-07-23T08:36:46;12.50;;;6.38;;
20474;SDS011;10396;51.724;23.090;2022-07-23T08:39:13;12.02;;;6.25;;
20474;SDS011;10396;51.724;23.090;2022-07-23T08:41:41;11.25;;;7.05;;
20474;SDS011;10396;51.724;23.090;2022-07-23T08:44:09;14.27;;;6.95;;
20474;SDS011;10396;51.724;23.090;2022-07-23T08:46:37;10.65;;;6.30;;
20474;SDS011;10396;51.724;23.090;2022-07-23T08:49:07;11.48;;;6.20;;
20474;SDS011;10396;51.724;23.090;2022-07-23T08:51:36;9.80;;;6.00;;
20474;SDS011;10396;51.724;23.090;2022-07-23T08:54:04;11.60;;;6.18;;
20474;SDS011;10396;51.724;23.090;2022-07-23T08:56:32;14.45;;;6.57;;
20474;SDS011;10396;51.724;23.090;2022-07-23T08:58:59;13.98;;;6.22;;
20474;SDS011;10396;51.724;23.090;2022-07-23T09:01:26;10.10;;;6.00;;
20474;SDS011;10396;51.724;23.090;2022-07-23T09:03:54;12.07;;;6.35;;
20474;SDS011;10396;51.724;23.090;2022-07-23T09:06:21;11.95;;;6.53;;
20474;SDS011;10396;51.724;23.090;2022-07-23T09:08:50;11.93;;;6.85;;
20474;SDS011;10396;51.724;23.090;2022-07-23T09:11:18;10.43;;;6.25;;
20474;SDS011;10396;51.724;23.090;2022-07-23T09:13:46;12.75;;;6.00;;
20474;SDS011;10396;51.724;23.090;2022-07-23T09:16:14;13.70;;;6.30;;
20474;SDS011;10396;51.724;23.090;2022-07-23T09:18:45;12.13;;;6.50;;
20474;SDS011;10396;51.724;23.090;2022-07-23T09:21:15;10.75;;;6.03;;
20474;SDS011;10396;51.724;23.090;2022-07-23T09:23:45;10.77;;;6.15;;
20474;SDS011;10396;51.724;23.090;2022-07-23T09:26:19;11.57;;;6.45;;
20474;SDS011;10396;51.724;23.090;2022-07-23T09:28:55;12.63;;;6.05;;
20474;SDS011;10396;51.724;23.090;2022-07-23T09:31:24;10.80;;;6.22;;
20474;SDS011;10396;51.724;23.090;2022-07-23T09:34:01;10.70;;;6.20;;
20474;SDS011;10396;51.724;23.090;2022-07-23T09:36:34;10.63;;;5.80;;
20474;SDS011;10396;51.724;23.090;2022-07-23T09:39:02;9.13;;;5.72;;
20474;SDS011;10396;51.724;23.090;2022-07-23T09:41:35;10.90;;;5.95;;
20474;SDS011;10396;51.724;23.090;2022-07-23T09:44:08;9.63;;;5.68;;
20474;SDS011;10396;51.724;23.090;2022-07-23T09:46:36;9.93;;;5.80;;
20474;SDS011;10396;51.724;23.090;2022-07-23T09:51:49;11.52;;;5.88;;
20474;SDS011;10396;51.724;23.090;2022-07-23T09:54:29;12.73;;;6.10;;
20474;SDS011;10396;51.724;23.090;2022-07-23T09:57:01;12.35;;;6.10;;
20474;SDS011;10396;51.724;23.090;2022-07-23T09:59:31;10.38;;;5.53;;
20474;SDS011;10396;51.724;23.090;2022-07-23T10:01:59;10.73;;;5.55;;
20474;SDS011;10396;51.724;23.090;2022-07-23T10:04:28;10.93;;;5.90;;
20474;SDS011;10396;51.724;23.090;2022-07-23T10:06:57;13.85;;;5.95;;
20474;SDS011;10396;51.724;23.090;2022-07-23T10:09:26;10.68;;;5.80;;
20474;SDS011;10396;51.724;23.090;2022-07-23T10:11:55;10.23;;;5.60;;
20474;SDS011;10396;51.724;23.090;2022-07-23T10:14:29;11.65;;;5.90;;
20474;SDS011;10396;51.724;23.090;2022-07-23T10:16:59;12.65;;;5.70;;
20474;SDS011;10396;51.724;23.090;2022-07-23T10:19:27;10.70;;;6.00;;
20474;SDS011;10396;51.724;23.090;2022-07-23T10:21:56;10.65;;;6.00;;
20474;SDS011;10396;51.724;23.090;2022-07-23T10:24:28;11.05;;;5.97;;
20474;SDS011;10396;51.724;23.090;2022-07-23T10:27:08;9.55;;;5.32;;
20474;SDS011;10396;51.724;23.090;2022-07-23T10:30:00;12.93;;;5.35;;
20474;SDS011;10396;51.724;23.090;2022-07-23T10:32:36;9.85;;;5.07;;
20474;SDS011;10396;51.724;23.090;2022-07-23T10:35:09;14.15;;;5.55;;
20474;SDS011;10396;51.724;23.090;2022-07-23T10:37:41;13.15;;;5.95;;
20474;SDS011;10396;51.724;23.090;2022-07-23T10:40:11;10.15;;;5.30;;
20474;SDS011;10396;51.724;23.090;2022-07-23T10:42:40;10.15;;;5.63;;
20474;SDS011;10396;51.724;23.090;2022-07-23T10:45:26;14.50;;;5.82;;
20474;SDS011;10396;51.724;23.090;2022-07-23T10:47:55;16.33;;;5.20;;
20474;SDS011;10396;51.724;23.090;2022-07-23T10:50:24;9.55;;;5.53;;
20474;SDS011;10396;51.724;23.090;2022-07-23T10:53:09;11.40;;;5.80;;
20474;SDS011;10396;51.724;23.090;2022-07-23T10:55:40;10.95;;;5.78;;
20474;SDS011;10396;51.724;23.090;2022-07-23T10:58:09;11.85;;;5.57;;
20474;SDS011;10396;51.724;23.090;2022-07-23T11:00:39;11.30;;;5.80;;
20474;SDS011;10396;51.724;23.090;2022-07-23T11:03:28;10.18;;;5.60;;
20474;SDS011;10396;51.724;23.090;2022-07-23T11:06:02;13.02;;;5.85;;
20474;SDS011;10396;51.724;23.090;2022-07-23T11:08:30;11.30;;;5.53;;
20474;SDS011;10396;51.724;23.090;2022-07-23T11:11:12;10.48;;;5.50;;
20474;SDS011;10396;51.724;23.090;2022-07-23T11:13:49;10.50;;;5.32;;
20474;SDS011;10396;51.724;23.090;2022-07-23T11:16:19;11.00;;;5.90;;
20474;SDS011;10396;51.724;23.090;2022-07-23T11:18:58;17.48;;;5.93;;
20474;SDS011;10396;51.724;23.090;2022-07-23T11:21:44;10.73;;;5.63;;
20474;SDS011;10396;51.724;23.090;2022-07-23T11:24:14;12.82;;;6.13;;
20474;SDS011;10396;51.724;23.090;2022-07-23T11:26:43;11.73;;;5.55;;
20474;SDS011;10396;51.724;23.090;2022-07-23T11:32:19;10.15;;;4.82;;
20474;SDS011;10396;51.724;23.090;2022-07-23T11:34:53;10.73;;;5.78;;
20474;SDS011;10396;51.724;23.090;2022-07-23T11:40:08;12.60;;;5.28;;
20474;SDS011;10396;51.724;23.090;2022-07-23T11:42:37;10.60;;;5.43;;
20474;SDS011;10396;51.724;23.090;2022-07-23T11:45:06;13.43;;;5.63;;
20474;SDS011;10396;51.724;23.090;2022-07-23T11:47:36;10.13;;;5.68;;
20474;SDS011;10396;51.724;23.090;2022-07-23T11:50:04;10.05;;;5.43;;
20474;SDS011;10396;51.724;23.090;2022-07-23T11:52:33;9.90;;;5.65;;
20474;SDS011;10396;51.724;23.090;2022-07-23T11:55:02;14.30;;;6.00;;
20474;SDS011;10396;51.724;23.090;2022-07-23T11:57:31;12.70;;;6.03;;
20474;SDS011;10396;51.724;23.090;2022-07-23T12:00:02;10.60;;;5.82;;
20474;SDS011;10396;51.724;23.090;2022-07-23T12:02:31;10.43;;;5.85;;
20474;SDS011;10396;51.724;23.090;2022-07-23T12:05:00;11.05;;;5.57;;
20474;SDS011;10396;51.724;23.090;2022-07-23T12:07:29;9.98;;;5.40;;
20474;SDS011;10396;51.724;23.090;2022-07-23T12:09:58;10.68;;;5.80;;
20474;SDS011;10396;51.724;23.090;2022-07-23T12:12:26;10.38;;;5.90;;
20474;SDS011;10396;51.724;23.090;2022-07-23T12:14:54;9.70;;;5.50;;
20474;SDS011;10396;51.724;23.090;2022-07-23T12:17:27;10.65;;;5.70;;
20474;SDS011;10396;51.724;23.090;2022-07-23T12:19:56;12.80;;;5.57;;
20474;SDS011;10396;51.724;23.090;2022-07-23T12:22:26;13.38;;;5.72;;
20474;SDS011;10396;51.724;23.090;2022-07-23T12:25:02;10.73;;;5.28;;
20474;SDS011;10396;51.724;23.090;2022-07-23T12:27:31;11.77;;;6.00;;
20474;SDS011;10396;51.724;23.090;2022-07-23T12:29:58;10.10;;;5.78;;
20474;SDS011;10396;51.724;23.090;2022-07-23T12:32:26;14.23;;;6.00;;
20474;SDS011;10396;51.724;23.090;2022-07-23T12:35:03;9.35;;;5.70;;
20474;SDS011;10396;51.724;23.090;2022-07-23T12:37:33;9.15;;;5.30;;
20474;SDS011;10396;51.724;23.090;2022-07-23T12:40:18;11.75;;;5.22;;
20474;SDS011;10396;51.724;23.090;2022-07-23T12:42:47;11.73;;;6.13;;
20474;SDS011;10396;51.724;23.090;2022-07-23T12:45:15;10.15;;;5.90;;
20474;SDS011;10396;51.724;23.090;2022-07-23T12:48:00;11.40;;;5.90;;
20474;SDS011;10396;51.724;23.090;2022-07-23T12:50:39;10.40;;;5.88;;
20474;SDS011;10396;51.724;23.090;2022-07-23T12:53:11;9.82;;;5.55;;
20474;SDS011;10396;51.724;23.090;2022-07-23T12:55:41;11.88;;;6.15;;
20474;SDS011;10396;51.724;23.090;2022-07-23T12:58:10;11.50;;;5.97;;
20474;SDS011;10396;51.724;23.090;2022-07-23T13:00:54;9.65;;;5.70;;
20474;SDS011;10396;51.724;23.090;2022-07-23T13:03:30;11.68;;;5.57;;
20474;SDS011;10396;51.724;23.090;2022-07-23T13:06:01;10.27;;;5.13;;
20474;SDS011;10396;51.724;23.090;2022-07-23T13:08:30;11.00;;;5.78;;
20474;SDS011;10396;51.724;23.090;2022-07-23T13:10:59;12.43;;;5.90;;
20474;SDS011;10396;51.724;23.090;2022-07-23T13:13:28;14.38;;;5.93;;
20474;SDS011;10396;51.724;23.090;2022-07-23T13:15:57;10.95;;;5.90;;
20474;SDS011;10396;51.724;23.090;2022-07-23T13:18:25;9.68;;;5.50;;
20474;SDS011;10396;51.724;23.090;2022-07-23T13:20:53;9.70;;;5.95;;
20474;SDS011;10396;51.724;23.090;2022-07-23T13:23:21;11.63;;;5.68;;
20474;SDS011;10396;51.724;23.090;2022-07-23T13:25:50;12.05;;;6.07;;
20474;SDS011;10396;51.724;23.090;2022-07-23T13:28:18;10.93;;;5.93;;
20474;SDS011;10396;51.724;23.090;2022-07-23T13:30:47;12.18;;;7.20;;
20474;SDS011;10396;51.724;23.090;2022-07-23T13:33:16;10.95;;;6.28;;
20474;SDS011;10396;51.724;23.090;2022-07-23T13:35:44;11.63;;;6.55;;
20474;SDS011;10396;51.724;23.090;2022-07-23T13:38:12;14.10;;;6.72;;
20474;SDS011;10396;51.724;23.090;2022-07-23T13:40:40;10.98;;;6.80;;
20474;SDS011;10396;51.724;23.090;2022-07-23T13:43:10;12.35;;;6.18;;
20474;SDS011;10396;51.724;23.090;2022-07-23T13:45:38;12.52;;;6.20;;
20474;SDS011;10396;51.724;23.090;2022-07-23T13:48:08;10.80;;;6.43;;
20474;SDS011;10396;51.724;23.090;2022-07-23T13:50:36;11.15;;;6.22;;
20474;SDS011;10396;51.724;23.090;2022-07-23T13:53:04;13.70;;;6.68;;
20474;SDS011;10396;51.724;23.090;2022-07-23T13:55:33;13.93;;;7.07;;
20474;SDS011;10396;51.724;23.090;2022-07-23T13:58:00;11.85;;;6.75;;
20474;SDS011;10396;51.724;23.090;2022-07-23T14:00:30;13.68;;;6.70;;
20474;SDS011;10396;51.724;23.090;2022-07-23T14:02:58;11.48;;;6.68;;
20474;SDS011;10396;51.724;23.090;2022-07-23T14:05:26;10.55;;;6.55;;
20474;SDS011;10396;51.724;23.090;2022-07-23T14:07:53;12.13;;;6.78;;
20474;SDS011;10396;51.724;23.090;2022-07-23T14:10:21;10.75;;;6.47;;
20474;SDS011;10396;51.724;23.090;2022-07-23T14:12:49;10.85;;;6.43;;
20474;SDS011;10396;51.724;23.090;2022-07-23T14:15:18;11.98;;;6.70;;
20474;SDS011;10396;51.724;23.090;2022-07-23T14:17:48;12.60;;;6.70;;
20474;SDS011;10396;51.724;23.090;2022-07-23T14:20:15;11.60;;;6.25;;
20474;SDS011;10396;51.724;23.090;2022-07-23T14:22:43;11.88;;;6.40;;
20474;SDS011;10396;51.724;23.090;2022-07-23T14:25:11;11.50;;;6.40;;
20474;SDS011;10396;51.724;23.090;2022-07-23T14:27:38;10.38;;;6.10;;
20474;SDS011;10396;51.724;23.090;2022-07-23T14:30:07;13.73;;;6.72;;
20474;SDS011;10396;51.724;23.090;2022-07-23T14:32:35;13.75;;;6.53;;
20474;SDS011;10396;51.724;23.090;2022-07-23T14:35:05;11.48;;;6.45;;